createdAt,value
2018-08-13T00:00:08.397Z,3.87
2018-08-13T00:02:43.137Z,3.90
2018-08-13T00:05:19.058Z,3.35
2018-08-13T00:07:53.788Z,3.37
2018-08-13T00:10:28.536Z,3.42
2018-08-13T00:13:03.341Z,3.50
2018-08-13T00:15:38.201Z,3.52
2018-08-13T00:18:14.151Z,3.42
2018-08-13T00:20:49.005Z,3.33
2018-08-13T00:23:23.755Z,3.20
2018-08-13T00:25:59.553Z,3.05
2018-08-13T00:28:35.331Z,2.90
2018-08-13T00:31:10.092Z,3.42
2018-08-13T00:33:44.828Z,2.92
2018-08-13T00:36:19.682Z,3.70
2018-08-13T00:38:54.410Z,3.02
2018-08-13T00:41:30.263Z,3.25
2018-08-13T00:44:05.160Z,3.00
2018-08-13T00:46:39.964Z,3.30
2018-08-13T00:49:14.742Z,2.90
2018-08-13T00:51:49.523Z,2.98
2018-08-13T00:54:25.264Z,3.00
2018-08-13T00:57:01.075Z,2.90
2018-08-13T00:59:35.855Z,2.92
2018-08-13T01:02:11.226Z,2.83
2018-08-13T01:04:45.976Z,2.70
2018-08-13T01:07:20.792Z,2.77
2018-08-13T01:09:55.517Z,2.98
2018-08-13T01:12:30.297Z,2.90
2018-08-13T01:15:05.904Z,2.87
2018-08-13T01:17:42.086Z,3.00
2018-08-13T01:20:17.836Z,2.67
2018-08-13T01:22:53.853Z,2.62
2018-08-13T01:25:28.610Z,3.15
2018-08-13T01:28:03.323Z,2.92
2018-08-13T01:30:38.059Z,2.55
2018-08-13T01:33:12.897Z,2.60
2018-08-13T01:35:47.637Z,2.77
2018-08-13T01:38:23.402Z,2.22
2018-08-13T01:40:58.204Z,2.70
2018-08-13T01:43:32.934Z,2.30
2018-08-13T01:46:07.748Z,2.15
2018-08-13T01:48:42.499Z,2.33
2018-08-13T01:51:17.242Z,2.10
2018-08-13T01:53:51.977Z,2.30
2018-08-13T01:56:26.764Z,2.60
2018-08-13T01:59:02.576Z,2.20
2018-08-13T02:01:37.391Z,2.47
2018-08-13T02:04:13.161Z,2.37
2018-08-13T02:06:48.038Z,2.47
2018-08-13T02:09:22.823Z,2.77
2018-08-13T02:11:57.668Z,2.50
2018-08-13T02:14:33.825Z,2.45
2018-08-13T02:17:08.693Z,2.40
2018-08-13T02:19:43.829Z,2.20
2018-08-13T02:22:18.660Z,2.42
2018-08-13T02:24:54.449Z,2.22
2018-08-13T02:27:29.274Z,2.10
2018-08-13T02:30:05.599Z,1.90
2018-08-13T02:32:41.439Z,3.08
2018-08-13T02:35:16.213Z,2.10
2018-08-13T02:37:50.911Z,2.12
2018-08-13T02:40:25.684Z,2.10
2018-08-13T02:43:01.473Z,2.55
2018-08-13T02:45:36.310Z,2.62
2018-08-13T02:48:11.008Z,2.35
2018-08-13T02:50:51.807Z,2.58
2018-08-13T02:53:26.543Z,2.62
2018-08-13T02:56:01.579Z,2.50
2018-08-13T02:58:36.300Z,2.50
2018-08-13T03:01:11.075Z,2.70
2018-08-13T03:03:46.860Z,2.40
2018-08-13T03:06:22.791Z,2.83
2018-08-13T03:08:57.565Z,2.25
2018-08-13T03:11:32.332Z,2.80
2018-08-13T03:14:07.184Z,2.40
2018-08-13T03:16:42.932Z,2.70
2018-08-13T03:19:17.703Z,2.50
2018-08-13T03:21:52.789Z,2.37
2018-08-13T03:24:28.911Z,2.50
2018-08-13T03:27:03.626Z,2.22
2018-08-13T03:29:38.752Z,2.65
2018-08-13T03:32:13.490Z,2.75
2018-08-13T03:34:48.351Z,2.35
2018-08-13T03:37:23.023Z,2.33
2018-08-13T03:39:57.783Z,2.55
2018-08-13T03:42:32.522Z,2.27
2018-08-13T03:45:08.903Z,2.60
2018-08-13T03:47:43.977Z,2.80
2018-08-13T03:50:18.765Z,2.52
2018-08-13T03:52:53.497Z,2.42
2018-08-13T03:55:28.218Z,2.52
2018-08-13T03:58:02.958Z,2.80
2018-08-13T04:00:38.033Z,2.92
2018-08-13T04:03:12.848Z,2.83
2018-08-13T04:05:47.605Z,2.67
2018-08-13T04:08:23.413Z,2.75
2018-08-13T04:10:58.183Z,2.47
2018-08-13T04:13:33.943Z,2.80
2018-08-13T04:16:08.772Z,2.45
2018-08-13T04:18:43.506Z,2.75
2018-08-13T04:21:18.240Z,2.50
2018-08-13T04:23:52.995Z,3.00
2018-08-13T04:26:27.836Z,2.52
2018-08-13T04:29:02.622Z,2.52
2018-08-13T04:31:37.405Z,2.72
2018-08-13T04:34:13.223Z,2.40
2018-08-13T04:36:49.068Z,2.65
2018-08-13T04:39:23.813Z,2.33
2018-08-13T04:42:00.030Z,2.75
2018-08-13T04:44:35.087Z,2.42
2018-08-13T04:47:13.593Z,2.67
2018-08-13T04:49:49.455Z,2.62
2018-08-13T04:52:24.218Z,2.12
2018-08-13T04:54:59.403Z,2.12
2018-08-13T04:57:34.533Z,2.12
2018-08-13T05:00:09.836Z,2.80
2018-08-13T05:02:44.668Z,2.35
2018-08-13T05:05:19.447Z,2.30
2018-08-13T05:07:54.188Z,2.42
2018-08-13T05:10:29.165Z,2.58
2018-08-13T05:13:07.215Z,2.37
2018-08-13T05:15:41.948Z,2.50
2018-08-13T05:18:16.664Z,2.58
2018-08-13T05:20:51.407Z,2.10
2018-08-13T05:23:27.148Z,2.58
2018-08-13T05:26:01.973Z,2.20
2018-08-13T05:28:36.717Z,2.40
2018-08-13T05:31:11.799Z,2.45
2018-08-13T05:33:46.498Z,2.47
2018-08-13T05:36:21.281Z,2.27
2018-08-13T05:38:56.040Z,2.00
2018-08-13T05:41:30.752Z,2.17
2018-08-13T05:44:05.618Z,2.80
2018-08-13T05:46:40.390Z,2.17
2018-08-13T05:49:15.108Z,2.37
2018-08-13T05:51:50.264Z,2.30
2018-08-13T05:54:25.029Z,2.00
2018-08-13T05:56:59.833Z,1.62
2018-08-13T05:59:34.627Z,1.65
2018-08-13T06:02:09.432Z,1.95
2018-08-13T06:04:45.152Z,2.10
2018-08-13T06:07:19.925Z,1.80
2018-08-13T06:09:54.654Z,1.80
2018-08-13T06:12:30.495Z,2.00
2018-08-13T06:15:07.380Z,2.08
2018-08-13T06:17:43.216Z,1.70
2018-08-13T06:20:17.944Z,2.10
2018-08-13T06:22:53.743Z,2.00
2018-08-13T06:25:28.458Z,1.77
2018-08-13T06:28:04.541Z,1.85
2018-08-13T06:30:39.435Z,1.70
2018-08-13T06:33:14.552Z,1.77
2018-08-13T06:35:50.300Z,1.77
2018-08-13T06:38:25.436Z,1.50
2018-08-13T06:41:00.298Z,1.72
2018-08-13T06:43:35.084Z,1.90
2018-08-13T06:46:09.800Z,1.70
2018-08-13T06:48:44.556Z,1.80
2018-08-13T06:51:19.260Z,2.00
2018-08-13T06:53:55.086Z,1.57
2018-08-13T06:56:30.865Z,1.50
2018-08-13T06:59:05.664Z,1.62
2018-08-13T07:01:40.402Z,1.60
2018-08-13T07:04:15.172Z,1.47
2018-08-13T07:06:51.232Z,1.30
2018-08-13T07:09:26.026Z,1.70
2018-08-13T07:12:01.798Z,1.70
2018-08-13T07:14:36.580Z,1.57
2018-08-13T07:17:11.698Z,1.40
2018-08-13T07:19:47.486Z,1.67
2018-08-13T07:22:22.265Z,1.65
2018-08-13T07:24:57.216Z,1.42
2018-08-13T07:27:32.534Z,1.32
2018-08-13T07:30:09.880Z,1.50
2018-08-13T07:32:53.175Z,1.40
2018-08-13T07:35:30.504Z,1.60
2018-08-13T07:38:07.544Z,1.32
2018-08-13T07:40:46.121Z,1.40
2018-08-13T07:43:24.439Z,1.45
2018-08-13T07:46:03.113Z,1.40
2018-08-13T07:48:43.860Z,1.40
2018-08-13T07:51:21.921Z,1.32
2018-08-13T07:53:59.249Z,1.27
2018-08-13T07:56:36.758Z,1.15
2018-08-13T07:59:13.736Z,1.20
2018-08-13T08:01:50.194Z,1.17
2018-08-13T08:04:28.331Z,1.22
2018-08-13T08:07:04.646Z,1.50
2018-08-13T08:09:40.536Z,1.00
2018-08-13T08:12:16.237Z,1.32
2018-08-13T08:14:54.691Z,1.47
2018-08-13T08:17:30.919Z,1.20
2018-08-13T08:20:10.181Z,1.02
2018-08-13T08:22:46.306Z,1.00
2018-08-13T08:25:22.741Z,1.17
2018-08-13T08:27:58.476Z,1.25
2018-08-13T08:30:34.459Z,1.05
2018-08-13T08:33:11.063Z,1.20
2018-08-13T08:35:47.630Z,1.25
2018-08-13T08:38:26.162Z,0.98
2018-08-13T08:41:01.854Z,0.98
2018-08-13T08:43:37.857Z,1.00
2018-08-13T08:46:13.867Z,1.10
2018-08-13T08:48:48.609Z,1.10
2018-08-13T08:51:24.324Z,1.00
2018-08-13T08:54:04.502Z,1.10
2018-08-13T08:59:23.651Z,1.35
2018-08-13T09:01:58.798Z,1.20
2018-08-13T09:04:33.220Z,0.80
2018-08-13T09:07:07.995Z,1.00
2018-08-13T09:09:43.763Z,0.90
2018-08-13T09:12:18.531Z,1.00
2018-08-13T09:14:53.276Z,0.95
2018-08-13T09:17:38.745Z,1.20
2018-08-13T09:20:24.715Z,1.02
2018-08-13T09:23:10.409Z,0.90
2018-08-13T09:26:55.679Z,1.12
2018-08-13T09:29:41.087Z,0.90
2018-08-13T09:32:28.667Z,0.80
2018-08-13T09:35:12.868Z,0.90
2018-08-13T09:37:48.487Z,0.90
2018-08-13T09:40:23.165Z,0.83
2018-08-13T09:42:58.285Z,1.17
2018-08-13T09:45:32.824Z,0.80
2018-08-13T09:48:07.555Z,0.90
2018-08-13T09:50:42.487Z,1.10
2018-08-13T09:53:17.299Z,0.90
2018-08-13T09:55:52.056Z,0.80
2018-08-13T09:58:27.601Z,0.80
2018-08-13T10:01:10.053Z,0.80
2018-08-13T10:03:44.627Z,1.00
2018-08-13T10:06:19.219Z,0.80
2018-08-13T10:08:54.008Z,0.77
2018-08-13T10:11:28.522Z,0.70
2018-08-13T10:14:03.010Z,0.87
2018-08-13T10:16:37.437Z,1.07
2018-08-13T10:19:11.887Z,0.80
2018-08-13T10:21:46.351Z,0.73
2018-08-13T10:24:21.921Z,0.80
2018-08-13T10:26:56.408Z,0.67
2018-08-13T10:29:31.209Z,0.90
2018-08-13T10:32:06.004Z,0.90
2018-08-13T10:34:40.442Z,0.80
2018-08-13T10:37:14.860Z,0.80
2018-08-13T10:39:50.349Z,0.90
2018-08-13T10:42:24.757Z,0.83
2018-08-13T10:44:59.297Z,0.93
2018-08-13T10:47:34.179Z,0.70
2018-08-13T10:50:10.528Z,0.77
2018-08-13T10:52:44.975Z,0.80
2018-08-13T10:55:19.597Z,0.90
2018-08-13T10:57:54.027Z,0.83
2018-08-13T11:00:28.485Z,0.90
2018-08-13T11:03:02.970Z,0.80
2018-08-13T11:05:37.587Z,0.70
2018-08-13T11:08:12.405Z,0.70
2018-08-13T11:10:46.887Z,0.90
2018-08-13T11:13:21.367Z,0.70
2018-08-13T11:15:56.850Z,0.60
2018-08-13T11:18:32.324Z,0.63
2018-08-13T11:21:08.836Z,0.80
2018-08-13T11:23:43.303Z,0.80
2018-08-13T11:26:17.827Z,0.80
2018-08-13T11:28:52.300Z,0.70
2018-08-13T11:31:26.812Z,0.73
2018-08-13T11:34:01.319Z,0.60
2018-08-13T11:36:35.793Z,0.73
2018-08-13T11:39:11.700Z,0.90
2018-08-13T11:41:46.202Z,0.60
2018-08-13T11:44:20.665Z,1.10
2018-08-13T11:46:55.150Z,1.20
2018-08-13T11:49:29.578Z,0.80
2018-08-13T11:52:04.124Z,1.00
2018-08-13T11:54:38.580Z,1.00
2018-08-13T11:57:13.038Z,0.70
2018-08-13T11:59:47.557Z,0.90
2018-08-13T12:02:22.040Z,0.83
2018-08-13T12:04:56.820Z,0.83
2018-08-13T12:07:31.336Z,0.90
2018-08-13T12:10:07.156Z,0.97
2018-08-13T12:12:43.452Z,0.90
2018-08-13T12:15:17.866Z,1.00
2018-08-13T12:17:52.370Z,1.00
2018-08-13T12:20:26.820Z,0.80
2018-08-13T12:23:01.380Z,1.07
2018-08-13T12:25:36.176Z,0.97
2018-08-13T12:28:10.680Z,0.93
2018-08-13T12:30:45.501Z,1.03
2018-08-13T12:33:19.958Z,1.10
2018-08-13T12:35:54.406Z,0.80
2018-08-13T12:38:28.907Z,0.83
2018-08-13T12:41:03.421Z,1.03
2018-08-13T12:43:38.096Z,0.90
2018-08-13T12:46:12.536Z,0.80
2018-08-13T12:48:47.379Z,0.90
2018-08-13T12:51:21.824Z,1.10
2018-08-13T12:53:56.315Z,0.73
2018-08-13T12:56:31.120Z,0.87
2018-08-13T12:59:05.670Z,1.10
2018-08-13T13:01:41.090Z,0.73
2018-08-13T13:04:15.556Z,1.00
2018-08-13T13:06:49.978Z,0.80
2018-08-13T13:09:24.543Z,0.90
2018-08-13T13:11:58.989Z,1.00
2018-08-13T13:14:33.479Z,0.90
2018-08-13T13:17:08.934Z,0.87
2018-08-13T13:19:43.565Z,1.00
2018-08-13T13:22:19.104Z,1.00
2018-08-13T13:24:53.624Z,0.80
2018-08-13T13:27:29.068Z,0.90
2018-08-13T13:30:04.671Z,0.83
2018-08-13T13:32:39.121Z,0.70
2018-08-13T13:35:15.251Z,0.77
2018-08-13T13:37:49.691Z,0.80
2018-08-13T13:40:24.534Z,0.97
2018-08-13T13:42:59.062Z,0.57
2018-08-13T13:45:34.715Z,0.83
2018-08-13T13:48:09.150Z,0.80
2018-08-13T13:50:43.627Z,0.73
2018-08-13T13:53:18.064Z,0.60
2018-08-13T13:55:55.421Z,0.70
2018-08-13T13:58:31.731Z,0.70
2018-08-13T14:01:16.047Z,0.70
2018-08-13T14:03:51.624Z,0.60
2018-08-13T14:06:27.171Z,0.90
2018-08-13T14:09:02.163Z,0.80
2018-08-13T14:11:36.811Z,0.80
2018-08-13T14:14:11.925Z,0.87
2018-08-13T14:16:46.404Z,0.70
2018-08-13T14:19:21.080Z,0.77
2018-08-13T14:21:55.506Z,0.80
2018-08-13T14:24:29.968Z,0.70
2018-08-13T14:27:05.074Z,0.70
2018-08-13T14:29:39.828Z,0.60
2018-08-13T14:32:15.352Z,0.90
2018-08-13T14:34:49.981Z,1.10
2018-08-13T14:37:24.452Z,1.50
2018-08-13T14:39:59.030Z,1.37
2018-08-13T14:42:33.603Z,0.83
2018-08-13T14:45:10.086Z,0.93
2018-08-13T14:47:46.897Z,0.93
2018-08-13T14:50:22.412Z,0.90
2018-08-13T14:52:57.648Z,1.00
2018-08-13T14:55:33.152Z,0.80
2018-08-13T14:58:07.676Z,0.70
2018-08-13T15:00:42.384Z,0.90
2018-08-13T15:03:16.852Z,0.70
2018-08-13T15:05:51.343Z,0.70
2018-08-13T15:08:25.799Z,0.90
2018-08-13T15:11:00.319Z,0.87
2018-08-13T15:13:34.747Z,0.80
2018-08-13T15:16:09.259Z,0.90
2018-08-13T15:18:43.656Z,0.83
2018-08-13T15:21:18.434Z,0.77
2018-08-13T15:23:53.163Z,1.27
2018-08-13T15:26:27.944Z,1.27
2018-08-13T15:29:02.863Z,1.27
2018-08-13T15:31:37.608Z,1.30
2018-08-13T15:34:12.355Z,0.93
2018-08-13T15:36:47.148Z,1.60
2018-08-13T15:39:22.211Z,1.00
2018-08-13T15:41:57.048Z,1.30
2018-08-13T15:44:31.991Z,1.40
2018-08-13T15:47:06.774Z,2.10
2018-08-13T15:49:42.575Z,2.80
2018-08-13T15:52:17.336Z,3.95
2018-08-13T15:54:52.303Z,7.87
2018-08-13T15:57:27.145Z,5.55
2018-08-13T16:00:01.947Z,4.83
2018-08-13T16:02:36.679Z,4.97
2018-08-13T16:05:12.179Z,5.45
2018-08-13T16:07:47.662Z,6.00
2018-08-13T16:10:22.467Z,5.55
2018-08-13T16:12:57.202Z,5.28
2018-08-13T16:15:31.977Z,5.08
2018-08-13T16:18:07.696Z,5.20
2018-08-13T16:20:43.572Z,4.47
2018-08-13T16:23:19.283Z,4.20
2018-08-13T16:25:54.760Z,3.98
2018-08-13T16:28:29.880Z,5.12
2018-08-13T16:31:04.638Z,5.22
2018-08-13T16:33:39.365Z,4.60
2018-08-13T16:36:14.147Z,4.37
2018-08-13T16:38:48.886Z,4.83
2018-08-13T16:41:23.660Z,4.75
2018-08-13T16:43:59.408Z,4.62
2018-08-13T16:46:35.492Z,4.55
2018-08-13T16:49:10.238Z,4.65
2018-08-13T16:51:45.026Z,4.72
2018-08-13T16:54:19.832Z,4.58
2018-08-13T16:56:55.660Z,3.72
2018-08-13T16:59:31.409Z,4.08
2018-08-13T17:02:06.340Z,3.40
2018-08-13T17:04:41.107Z,3.05
2018-08-13T17:07:15.894Z,2.95
2018-08-13T17:09:50.988Z,2.60
2018-08-13T17:12:25.725Z,3.22
2018-08-13T17:15:00.453Z,4.70
2018-08-13T17:17:35.275Z,4.53
2018-08-13T17:20:12.364Z,4.60
2018-08-13T17:22:47.204Z,4.67
2018-08-13T17:25:23.363Z,5.28
2018-08-13T17:27:58.319Z,4.37
2018-08-13T17:30:34.405Z,4.83
2018-08-13T17:33:09.624Z,5.25
2018-08-13T17:35:44.414Z,4.80
2018-08-13T17:38:19.500Z,4.17
2018-08-13T17:40:54.279Z,2.98
2018-08-13T17:43:30.029Z,3.75
2018-08-13T17:46:04.865Z,3.40
2018-08-13T17:48:39.728Z,3.40
2018-08-13T17:51:15.589Z,3.00
2018-08-13T17:53:50.385Z,3.50
2018-08-13T17:56:25.192Z,4.22
2018-08-13T17:59:00.108Z,4.25
2018-08-13T18:01:34.869Z,4.37
2018-08-13T18:04:09.972Z,4.80
2018-08-13T18:06:45.737Z,4.67
2018-08-13T18:09:20.555Z,4.67
2018-08-13T18:11:56.376Z,5.45
2018-08-13T18:14:31.147Z,4.42
2018-08-13T18:17:05.913Z,4.33
2018-08-13T18:19:40.801Z,4.30
2018-08-13T18:22:15.611Z,4.35
2018-08-13T18:24:51.400Z,3.98
2018-08-13T18:27:26.181Z,4.20
2018-08-13T18:30:01.052Z,4.90
2018-08-13T18:32:35.793Z,4.08
2018-08-13T18:35:10.776Z,3.98
2018-08-13T18:37:45.550Z,3.40
2018-08-13T18:40:23.688Z,3.70
2018-08-13T18:42:58.435Z,4.05
2018-08-13T18:45:33.313Z,4.28
2018-08-13T18:48:08.031Z,5.15
2018-08-13T18:50:42.754Z,4.75
2018-08-13T18:53:17.523Z,4.53
2018-08-13T18:55:52.281Z,4.90
2018-08-13T18:58:27.001Z,4.12
2018-08-13T19:01:01.763Z,4.55
2018-08-13T19:03:36.539Z,4.10
2018-08-13T19:06:11.323Z,3.70
2018-08-13T19:08:46.095Z,4.03
2018-08-13T19:11:21.305Z,3.98
2018-08-13T19:13:56.060Z,4.00
2018-08-13T19:16:30.819Z,4.95
2018-08-13T19:19:05.614Z,4.83
2018-08-13T19:21:40.466Z,5.00
2018-08-13T19:24:15.489Z,5.08
2018-08-13T19:26:51.227Z,5.50
2018-08-13T19:29:25.951Z,4.92
2018-08-13T19:32:00.743Z,5.75
2018-08-13T19:34:35.432Z,6.45
2018-08-13T19:37:10.199Z,7.00
2018-08-13T19:39:46.021Z,6.35
2018-08-13T19:42:20.749Z,6.72
2018-08-13T19:44:55.821Z,6.78
2018-08-13T19:47:30.577Z,6.35
2018-08-13T19:50:06.517Z,6.62
2018-08-13T19:52:43.664Z,6.78
2018-08-13T19:55:19.802Z,6.17
2018-08-13T19:57:55.611Z,6.70
2018-08-13T20:00:30.567Z,6.37
2018-08-13T20:03:06.077Z,6.78
2018-08-13T20:05:40.874Z,8.40
2018-08-13T20:08:16.721Z,7.25
2018-08-13T20:10:51.536Z,7.20
2018-08-13T20:13:26.306Z,7.55
2018-08-13T20:16:02.287Z,7.00
2018-08-13T20:18:37.077Z,7.67
2018-08-13T20:21:11.763Z,6.90
2018-08-13T20:23:46.564Z,7.92
2018-08-13T20:26:21.482Z,7.15
2018-08-13T20:28:56.207Z,7.92
2018-08-13T20:31:31.984Z,8.25
2018-08-13T20:34:07.470Z,7.12
2018-08-13T20:36:43.192Z,6.40
2018-08-13T20:39:19.007Z,5.97
2018-08-13T20:41:53.783Z,5.75
2018-08-13T20:44:28.556Z,5.40
2018-08-13T20:47:03.356Z,4.92
2018-08-13T20:49:39.156Z,4.20
2018-08-13T20:52:13.876Z,4.40
2018-08-13T20:54:48.649Z,4.50
2018-08-13T20:57:23.377Z,4.65
2018-08-13T20:59:58.200Z,4.30
2018-08-13T21:02:32.939Z,4.03
2018-08-13T21:05:07.987Z,3.85
2018-08-13T21:07:42.927Z,3.72
2018-08-13T21:10:18.950Z,2.90
2018-08-13T21:12:54.814Z,3.47
2018-08-13T21:15:29.648Z,3.50
2018-08-13T21:18:04.520Z,3.42
2018-08-13T21:20:40.336Z,3.58
2018-08-13T21:23:15.072Z,3.15
2018-08-13T21:25:49.850Z,3.30
2018-08-13T21:28:24.573Z,3.90
2018-08-13T21:30:59.425Z,3.55
2018-08-13T21:33:34.432Z,3.58
2018-08-13T21:36:09.220Z,3.05
2018-08-13T21:38:43.972Z,3.60
2018-08-13T21:41:19.748Z,3.15
2018-08-13T21:43:54.876Z,3.75
2018-08-13T21:46:29.647Z,4.10
2018-08-13T21:49:04.488Z,3.40
2018-08-13T21:51:39.332Z,3.30
2018-08-13T21:54:14.140Z,3.42
2018-08-13T21:56:48.915Z,3.90
2018-08-13T21:59:23.599Z,4.20
2018-08-13T22:01:59.467Z,3.67
2018-08-13T22:04:34.684Z,3.70
2018-08-13T22:07:09.518Z,3.35
2018-08-13T22:09:44.254Z,3.40
2018-08-13T22:12:20.105Z,3.72
2018-08-13T22:14:54.867Z,3.40
2018-08-13T22:17:29.606Z,3.60
2018-08-13T22:20:04.765Z,2.95
2018-08-13T22:22:39.538Z,3.27
2018-08-13T22:25:16.719Z,2.75
2018-08-13T22:27:51.533Z,3.52
2018-08-13T22:30:26.283Z,3.10
2018-08-13T22:33:02.118Z,3.30
2018-08-13T22:35:36.931Z,3.67
2018-08-13T22:38:11.763Z,3.70
2018-08-13T22:40:46.597Z,3.45
2018-08-13T22:43:21.396Z,3.35
2018-08-13T22:45:56.121Z,3.30
2018-08-13T22:48:30.909Z,4.05
2018-08-13T22:51:06.029Z,3.50
2018-08-13T22:53:40.840Z,3.60
2018-08-13T22:56:15.641Z,4.40
2018-08-13T22:58:51.434Z,3.95
2018-08-13T23:01:27.174Z,3.87
2018-08-13T23:04:02.013Z,4.40
2018-08-13T23:06:36.790Z,4.22
2018-08-13T23:09:13.501Z,4.45
2018-08-13T23:11:48.215Z,4.08
2018-08-13T23:14:23.033Z,4.85
2018-08-13T23:16:57.789Z,4.58
2018-08-13T23:19:33.582Z,4.08
2018-08-13T23:22:08.669Z,4.35
2018-08-13T23:24:43.405Z,4.67
2018-08-13T23:27:18.140Z,4.78
2018-08-13T23:29:52.941Z,4.47
2018-08-13T23:32:27.639Z,5.12
2018-08-13T23:35:02.392Z,4.75
2018-08-13T23:37:37.170Z,5.20
2018-08-13T23:40:13.004Z,4.35
2018-08-13T23:42:47.848Z,5.08
2018-08-13T23:45:26.462Z,4.97
2018-08-13T23:48:02.302Z,5.22
2018-08-13T23:50:37.042Z,4.83
2018-08-13T23:53:12.836Z,4.83
2018-08-13T23:55:47.603Z,4.78
2018-08-13T23:58:22.369Z,4.03
